Time;durP1;ratioP1;P1;durP2;ratioP2;P2;SDS_P1;SDS_P2;PMS_P1;PMS_P2;Temp;Humidity;BMP_temperature;BMP_pressure;BME280_temperature;BME280_humidity;BME280_pressure;Samples;Min_cycle;Max_cycle;Signal;HPM_P1;HPM_P2
2021/06/25 00:01:08;;;;;;;12.33;6.67;;;10.80;99.90;;;;;;5027875;28;20231;-87
2021/06/25 00:03:34;;;;;;;9.30;6.47;;;10.90;99.90;;;;;;5001607;28;20264;-87
2021/06/25 00:06:00;;;;;;;11.67;6.17;;;10.90;99.90;;;;;;5001191;28;21068;-87
2021/06/25 00:08:26;;;;;;;10.10;7.33;;;10.80;99.90;;;;;;5018250;28;20281;-86
2021/06/25 00:10:52;;;;;;;9.60;6.33;;;10.70;99.90;;;;;;5000572;28;20301;-88
2021/06/25 00:13:17;;;;;;;8.63;5.87;;;10.70;99.90;;;;;;5000712;28;20206;-86
2021/06/25 00:15:43;;;;;;;12.67;7.23;;;10.70;99.90;;;;;;5018318;28;20264;-86
2021/06/25 00:18:09;;;;;;;11.80;6.87;;;10.70;99.90;;;;;;4981456;28;20266;-86
2021/06/25 00:20:35;;;;;;;11.47;6.63;;;10.70;99.90;;;;;;5000349;28;20221;-86
2021/06/25 00:23:01;;;;;;;12.27;6.90;;;10.80;99.90;;;;;;5016377;28;20936;-87
2021/06/25 00:25:27;;;;;;;13.33;7.50;;;10.80;99.90;;;;;;5016336;28;20572;-86
2021/06/25 00:27:53;;;;;;;13.20;7.87;;;10.80;99.90;;;;;;5015797;28;20244;-87
2021/06/25 00:30:19;;;;;;;13.53;7.90;;;10.70;99.90;;;;;;5002036;28;20642;-87
2021/06/25 00:32:46;;;;;;;13.90;8.43;;;10.70;99.90;;;;;;5015023;28;20187;-87
2021/06/25 00:35:13;;;;;;;13.17;7.23;;;10.70;99.90;;;;;;5018365;28;20222;-87
2021/06/25 00:37:39;;;;;;;11.50;7.73;;;10.80;99.90;;;;;;5014052;28;20310;-88
2021/06/25 00:40:06;;;;;;;7.43;3.77;;;10.70;99.90;;;;;;5016148;28;21053;-85
2021/06/25 00:42:33;;;;;;;6.30;4.03;;;10.40;99.90;;;;;;5012177;28;20210;-86
2021/06/25 00:45:07;;;;;;;9.13;5.20;;;10.10;99.90;;;;;;5010538;28;20222;-89
2021/06/25 00:47:33;;;;;;;6.57;4.23;;;10.00;99.90;;;;;;5027466;28;20217;-87
2021/06/25 00:49:58;;;;;;;7.40;4.00;;;10.10;99.90;;;;;;5001936;28;20195;-86
2021/06/25 00:52:24;;;;;;;7.30;5.70;;;9.90;99.90;;;;;;5000191;28;20257;-86
2021/06/25 00:54:50;;;;;;;9.33;5.40;;;9.90;99.90;;;;;;4997441;28;20227;-87
2021/06/25 00:57:16;;;;;;;9.73;5.60;;;9.90;99.90;;;;;;4999531;28;20219;-87
2021/06/25 00:59:41;;;;;;;14.10;8.17;;;10.00;99.90;;;;;;4998620;28;20194;-87
2021/06/25 01:02:08;;;;;;;12.80;7.13;;;10.00;99.90;;;;;;5031288;28;21062;-86
2021/06/25 01:04:35;;;;;;;11.37;7.57;;;10.10;99.90;;;;;;5014813;28;20215;-86
2021/06/25 01:07:02;;;;;;;13.03;7.07;;;10.20;99.90;;;;;;4999067;28;20310;-87
2021/06/25 01:09:28;;;;;;;9.47;7.33;;;10.30;99.90;;;;;;5015138;28;20382;-86
2021/06/25 01:11:54;;;;;;;10.00;5.47;;;10.30;99.90;;;;;;5016741;28;20258;-87
2021/06/25 01:14:21;;;;;;;15.67;5.57;;;10.30;99.90;;;;;;5012951;28;20199;-87
2021/06/25 01:16:46;;;;;;;13.53;7.37;;;10.30;99.90;;;;;;5014334;28;21036;-86
2021/06/25 01:19:14;;;;;;;11.93;6.77;;;10.30;99.90;;;;;;4998610;28;20219;-87
2021/06/25 01:21:42;;;;;;;12.93;6.13;;;10.40;99.90;;;;;;4997914;28;20698;-86
2021/06/25 01:24:08;;;;;;;8.80;5.93;;;10.40;99.90;;;;;;5016697;28;20222;-86
2021/06/25 01:26:33;;;;;;;15.00;8.47;;;10.40;99.90;;;;;;4998360;28;20609;-86
2021/06/25 01:29:00;;;;;;;13.60;7.40;;;10.50;99.90;;;;;;5015464;28;20638;-86
2021/06/25 01:31:25;;;;;;;12.60;7.93;;;10.40;99.90;;;;;;5031561;28;20417;-86
2021/06/25 01:33:52;;;;;;;14.93;7.23;;;10.40;99.90;;;;;;4983538;28;20727;-86
2021/06/25 01:36:18;;;;;;;18.53;8.07;;;10.50;99.90;;;;;;5030445;28;20218;-87
2021/06/25 01:38:46;;;;;;;11.53;7.67;;;10.50;99.90;;;;;;5013659;28;20198;-87
2021/06/25 01:41:12;;;;;;;11.23;6.67;;;10.40;99.90;;;;;;5013725;28;20222;-86
2021/06/25 01:43:39;;;;;;;12.67;7.53;;;10.40;99.90;;;;;;5030378;28;20235;-86
2021/06/25 01:46:07;;;;;;;11.83;6.23;;;10.40;99.90;;;;;;5014606;28;20229;-87
2021/06/25 01:48:34;;;;;;;12.60;6.60;;;10.40;99.90;;;;;;5030218;28;20215;-87
2021/06/25 01:51:00;;;;;;;10.10;6.23;;;10.40;99.90;;;;;;5031602;28;20253;-87
2021/06/25 01:53:26;;;;;;;10.93;6.47;;;10.40;99.90;;;;;;5015893;28;20685;-87
2021/06/25 01:55:52;;;;;;;12.10;6.60;;;10.40;99.90;;;;;;4997605;28;20681;-88
2021/06/25 01:58:23;;;;;;;13.87;6.77;;;10.40;99.90;;;;;;5014884;28;20265;-86
2021/06/25 02:01:10;;;;;;;13.67;5.07;;;10.30;99.90;;;;;;5014814;28;20238;-88
2021/06/25 02:03:40;;;;;;;11.90;6.80;;;10.40;99.90;;;;;;5029633;28;20218;-88
2021/06/25 02:06:07;;;;;;;10.50;6.23;;;10.40;99.90;;;;;;5012352;28;20215;-87
2021/06/25 02:08:33;;;;;;;14.93;5.97;;;10.30;99.90;;;;;;5030804;28;20209;-87
2021/06/25 02:11:00;;;;;;;7.23;5.83;;;10.30;99.90;;;;;;5030420;28;20654;-88
2021/06/25 02:13:26;;;;;;;9.83;5.97;;;10.30;99.90;;;;;;5031504;28;20233;-86
2021/06/25 02:15:51;;;;;;;10.63;5.80;;;10.30;99.90;;;;;;4998914;28;20261;-88
2021/06/25 02:18:18;;;;;;;10.67;6.50;;;10.40;99.90;;;;;;5014910;28;20223;-87
2021/06/25 02:20:44;;;;;;;10.23;5.47;;;10.30;99.90;;;;;;5013564;28;20225;-88
2021/06/25 02:23:10;;;;;;;10.37;6.83;;;10.30;99.90;;;;;;4999199;28;20198;-88
2021/06/25 02:25:36;;;;;;;8.97;5.20;;;10.30;99.90;;;;;;4995329;28;20215;-88
2021/06/25 02:28:02;;;;;;;7.43;5.40;;;10.30;99.90;;;;;;5000255;28;20704;-88
2021/06/25 02:30:28;;;;;;;8.63;5.80;;;10.30;99.90;;;;;;5014810;28;20227;-88
2021/06/25 02:32:53;;;;;;;7.50;5.03;;;10.20;99.90;;;;;;5013997;28;21172;-88
2021/06/25 02:35:19;;;;;;;9.30;5.53;;;10.20;99.90;;;;;;5014707;28;20203;-88
2021/06/25 02:37:45;;;;;;;5.83;3.90;;;10.20;99.90;;;;;;5030354;28;20219;-88
2021/06/25 02:40:13;;;;;;;7.63;5.00;;;10.20;99.90;;;;;;5014225;28;20234;-88
2021/06/25 02:42:39;;;;;;;6.30;4.90;;;10.10;99.90;;;;;;5010955;28;20218;-88
2021/06/25 02:45:05;;;;;;;9.30;4.67;;;10.10;99.90;;;;;;5014929;28;20634;-88
2021/06/25 02:47:33;;;;;;;9.27;5.23;;;10.10;99.90;;;;;;4979980;28;20199;-89
2021/06/25 02:50:00;;;;;;;9.93;5.50;;;10.10;99.90;;;;;;5015639;28;20238;-86
2021/06/25 02:52:25;;;;;;;8.27;5.53;;;10.10;99.90;;;;;;5012839;28;20215;-85
2021/06/25 02:54:51;;;;;;;6.53;4.87;;;10.10;99.90;;;;;;4995734;28;20261;-88
2021/06/25 02:57:17;;;;;;;7.43;4.77;;;10.10;99.90;;;;;;4995839;28;20811;-86
2021/06/25 02:59:43;;;;;;;11.57;4.80;;;10.10;99.90;;;;;;5012588;28;20195;-86
2021/06/25 03:02:08;;;;;;;12.80;5.13;;;10.20;99.90;;;;;;5013479;28;20315;-87
2021/06/25 03:04:34;;;;;;;7.97;4.37;;;10.20;99.90;;;;;;5030317;28;20222;-87
2021/06/25 03:07:00;;;;;;;6.10;4.27;;;10.20;99.90;;;;;;4981618;28;20222;-86
2021/06/25 03:09:26;;;;;;;9.90;5.17;;;10.20;99.90;;;;;;5028411;28;20218;-86
2021/06/25 03:11:51;;;;;;;10.73;7.17;;;10.30;99.90;;;;;;5011782;28;20226;-86
2021/06/25 03:14:17;;;;;;;6.97;4.47;;;10.30;99.90;;;;;;5014852;28;20202;-87
2021/06/25 03:16:43;;;;;;;8.63;5.80;;;10.30;99.90;;;;;;5029161;28;20226;-87
2021/06/25 03:19:09;;;;;;;7.83;4.23;;;10.30;99.90;;;;;;5029590;28;20219;-89
2021/06/25 03:21:35;;;;;;;6.90;4.87;;;10.30;99.90;;;;;;5012483;28;20322;-88
2021/06/25 03:24:00;;;;;;;7.57;4.90;;;10.30;99.90;;;;;;5011943;28;21025;-87
2021/06/25 03:26:26;;;;;;;8.50;5.47;;;10.30;99.90;;;;;;5015332;28;20294;-88
2021/06/25 03:28:52;;;;;;;10.40;5.83;;;10.30;99.90;;;;;;5011734;28;20234;-87
2021/06/25 03:31:19;;;;;;;10.07;5.17;;;10.30;99.90;;;;;;5012190;28;20740;-87
2021/06/25 03:33:45;;;;;;;8.57;4.37;;;10.30;99.90;;;;;;5012638;28;20226;-87
2021/06/25 03:36:11;;;;;;;9.67;5.43;;;10.30;99.90;;;;;;5027116;28;20214;-86
2021/06/25 03:38:37;;;;;;;7.87;5.13;;;10.30;99.90;;;;;;5015035;28;20313;-86
2021/06/25 03:41:03;;;;;;;8.43;5.57;;;10.30;99.90;;;;;;5027465;28;21354;-85
2021/06/25 03:43:28;;;;;;;7.77;5.33;;;10.40;99.90;;;;;;5011532;28;20314;-87
2021/06/25 03:45:54;;;;;;;8.90;5.13;;;10.40;99.90;;;;;;5011656;28;20739;-87
2021/06/25 03:48:20;;;;;;;10.93;5.10;;;10.50;99.90;;;;;;4991236;28;20288;-86
2021/06/25 03:50:46;;;;;;;9.10;5.30;;;10.60;99.90;;;;;;5007933;28;20194;-87
2021/06/25 03:53:12;;;;;;;11.43;6.67;;;10.70;99.90;;;;;;5011104;28;20654;-87
2021/06/25 03:56:09;;;;;;;10.87;6.57;;;10.80;99.90;;;;;;5010145;28;20218;-86
2021/06/25 03:58:23;;;;;;;9.73;6.50;;;10.90;99.90;;;;;;5007457;28;20214;-86
2021/06/25 04:00:49;;;;;;;9.77;5.63;;;11.00;99.90;;;;;;4989609;28;20234;-87
2021/06/25 04:03:15;;;;;;;12.20;5.77;;;11.10;99.90;;;;;;5006713;28;20639;-88
2021/06/25 04:05:41;;;;;;;9.50;5.43;;;11.20;99.90;;;;;;5009016;28;20195;-87
2021/06/25 04:08:07;;;;;;;8.10;5.07;;;11.40;99.90;;;;;;5025669;28;21203;-87
2021/06/25 04:10:32;;;;;;;10.90;6.77;;;11.40;99.90;;;;;;4984550;28;20687;-88
2021/06/25 04:12:58;;;;;;;10.67;5.90;;;11.60;99.90;;;;;;5009432;28;20221;-87
2021/06/25 04:15:24;;;;;;;14.40;6.47;;;11.80;99.90;;;;;;5022722;28;20226;-88
2021/06/25 04:17:50;;;;;;;10.87;6.60;;;11.90;99.90;;;;;;5022571;28;20716;-87
2021/06/25 04:20:17;;;;;;;10.30;6.37;;;11.90;99.90;;;;;;4991436;28;20690;-88
2021/06/25 04:22:44;;;;;;;10.20;6.07;;;12.00;99.90;;;;;;4989543;28;20215;-88
2021/06/25 04:25:10;;;;;;;8.47;6.00;;;12.00;99.90;;;;;;5025166;28;20226;-88
2021/06/25 04:27:36;;;;;;;11.40;7.03;;;12.10;99.90;;;;;;5012639;28;20214;-86
2021/06/25 04:30:05;;;;;;;9.47;5.60;;;12.10;99.90;;;;;;5010577;28;20675;-87
2021/06/25 04:32:32;;;;;;;8.77;5.87;;;12.10;99.90;;;;;;5009921;28;20193;-87
2021/06/25 04:34:57;;;;;;;9.30;6.23;;;12.20;99.90;;;;;;5010517;28;20179;-86
2021/06/25 04:37:23;;;;;;;9.27;5.73;;;12.30;99.90;;;;;;5028610;28;20207;-87
2021/06/25 04:39:49;;;;;;;9.93;5.73;;;12.30;99.90;;;;;;5026751;28;20214;-86
2021/06/25 04:42:15;;;;;;;11.87;5.93;;;12.30;99.90;;;;;;5010161;28;20595;-88
2021/06/25 04:44:41;;;;;;;16.10;7.50;;;12.40;99.90;;;;;;5023840;28;20226;-88
2021/06/25 04:47:07;;;;;;;11.57;6.17;;;12.40;99.90;;;;;;5008660;28;20287;-88
2021/06/25 04:49:37;;;;;;;9.03;5.43;;;12.40;99.90;;;;;;5011838;28;20207;-87
2021/06/25 04:52:03;;;;;;;8.57;5.70;;;12.50;99.90;;;;;;5016014;28;20231;-88
2021/06/25 04:54:29;;;;;;;8.53;6.37;;;12.50;99.90;;;;;;5011355;28;20277;-89
2021/06/25 04:56:54;;;;;;;8.87;5.77;;;12.50;99.90;;;;;;5013536;28;20286;-87
2021/06/25 04:59:20;;;;;;;8.60;6.37;;;12.60;99.90;;;;;;5007561;28;20564;-87
2021/06/25 05:01:47;;;;;;;8.40;6.30;;;12.70;99.90;;;;;;5017338;28;20227;-87
2021/06/25 05:04:13;;;;;;;15.00;7.67;;;12.80;99.90;;;;;;5014783;28;20250;-88
2021/06/25 05:06:39;;;;;;;11.93;8.30;;;12.90;99.90;;;;;;5012147;28;20269;-87
2021/06/25 05:09:05;;;;;;;11.77;7.20;;;13.00;99.90;;;;;;5033072;28;20255;-87
2021/06/25 05:11:30;;;;;;;13.93;7.63;;;13.00;99.90;;;;;;5014396;28;20552;-87
2021/06/25 05:13:56;;;;;;;10.73;6.33;;;13.10;99.90;;;;;;4998108;28;20694;-88
2021/06/25 05:16:22;;;;;;;13.60;7.63;;;13.10;99.90;;;;;;4999528;28;20249;-87
2021/06/25 05:18:48;;;;;;;10.43;7.40;;;13.20;99.90;;;;;;4981267;28;21024;-87
2021/06/25 05:21:13;;;;;;;14.23;6.37;;;13.20;99.90;;;;;;4998099;28;20313;-86
2021/06/25 05:23:39;;;;;;;11.33;6.10;;;13.30;99.90;;;;;;5022653;28;20194;-86
2021/06/25 05:26:05;;;;;;;10.17;5.77;;;13.30;99.90;;;;;;4997570;28;20222;-87
2021/06/25 05:28:31;;;;;;;12.57;6.47;;;13.30;99.90;;;;;;4999689;28;20322;-88
2021/06/25 05:30:57;;;;;;;13.43;7.97;;;13.40;99.90;;;;;;4998915;28;20292;-87
2021/06/25 05:33:23;;;;;;;12.90;6.07;;;13.40;99.90;;;;;;5016250;28;20219;-87
2021/06/25 05:35:49;;;;;;;11.37;7.43;;;13.50;99.90;;;;;;5015022;28;20227;-89
2021/06/25 05:38:16;;;;;;;11.27;6.50;;;13.50;99.90;;;;;;4999866;28;20186;-90
2021/06/25 05:40:43;;;;;;;13.87;6.50;;;13.50;99.90;;;;;;5014050;28;20281;-90
2021/06/25 05:43:09;;;;;;;13.70;7.47;;;13.60;99.90;;;;;;5016021;28;20242;-90
2021/06/25 05:45:36;;;;;;;10.97;6.60;;;13.70;99.90;;;;;;4998759;28;20783;-88
2021/06/25 05:48:04;;;;;;;11.23;7.43;;;13.80;99.90;;;;;;5014051;28;20227;-86
2021/06/25 05:50:30;;;;;;;11.03;6.93;;;14.00;99.90;;;;;;4997096;28;20202;-87
2021/06/25 05:52:56;;;;;;;11.93;6.87;;;14.10;99.90;;;;;;5031629;28;20608;-89
2021/06/25 05:55:22;;;;;;;13.93;6.17;;;14.20;99.90;;;;;;5011605;28;20219;-88
2021/06/25 05:57:48;;;;;;;12.00;7.47;;;14.10;99.90;;;;;;5005284;28;20215;-89
2021/06/25 06:00:16;;;;;;;12.13;6.03;;;14.10;99.90;;;;;;5029341;28;20235;-88
2021/06/25 06:02:42;;;;;;;12.80;7.30;;;14.10;99.90;;;;;;5014413;28;20191;-88
2021/06/25 06:05:09;;;;;;;10.47;6.87;;;14.10;99.90;;;;;;5013822;28;20658;-89
2021/06/25 06:07:34;;;;;;;10.73;6.47;;;14.20;99.90;;;;;;5014327;28;20233;-88
2021/06/25 06:10:00;;;;;;;13.33;7.57;;;14.30;99.90;;;;;;5013516;28;20219;-88
2021/06/25 06:12:26;;;;;;;10.97;6.47;;;14.40;99.90;;;;;;5013330;28;20219;-88
2021/06/25 06:14:52;;;;;;;12.13;7.17;;;14.60;99.90;;;;;;5013224;28;20223;-88
2021/06/25 06:17:20;;;;;;;10.80;6.40;;;14.70;99.90;;;;;;4996776;28;20242;-90
2021/06/25 06:19:52;;;;;;;11.80;6.93;;;14.70;99.90;;;;;;5014572;28;20264;-89
2021/06/25 06:33:40;;;;;;;16.27;7.73;;;15.20;99.90;;;;;;5012633;28;20276;-87
2021/06/25 06:36:25;;;;;;;12.63;6.93;;;15.20;99.90;;;;;;5000285;28;20685;-89
2021/06/25 06:38:52;;;;;;;12.00;7.80;;;15.10;99.90;;;;;;5011957;28;20222;-88
2021/06/25 06:41:20;;;;;;;12.40;7.40;;;15.00;99.90;;;;;;4989453;28;20346;-90
2021/06/25 06:43:47;;;;;;;21.03;8.43;;;14.90;99.90;;;;;;4996939;28;20239;-87
2021/06/25 06:46:14;;;;;;;11.87;6.57;;;15.00;99.90;;;;;;4999028;28;20284;-87
2021/06/25 06:48:41;;;;;;;14.20;7.93;;;15.00;99.90;;;;;;5027669;28;20215;-87
2021/06/25 06:51:07;;;;;;;12.43;7.73;;;15.10;99.90;;;;;;5012531;28;20215;-87
2021/06/25 06:53:34;;;;;;;13.97;8.13;;;15.00;99.90;;;;;;4996341;28;20191;-92
2021/06/25 06:56:00;;;;;;;13.00;7.60;;;15.10;99.90;;;;;;5013703;28;20630;-90
2021/06/25 06:58:26;;;;;;;17.47;8.87;;;15.00;99.90;;;;;;5014320;28;20236;-87
2021/06/25 07:00:53;;;;;;;14.03;8.23;;;15.00;99.90;;;;;;5012289;28;20241;-89
2021/06/25 07:03:19;;;;;;;12.13;8.33;;;15.00;99.90;;;;;;5012252;28;20211;-90
2021/06/25 07:05:45;;;;;;;13.70;7.97;;;15.10;99.90;;;;;;5016206;28;20236;-91
2021/06/25 07:08:10;;;;;;;14.87;7.93;;;15.20;99.90;;;;;;5014163;28;20315;-90
2021/06/25 07:10:36;;;;;;;16.47;8.83;;;15.40;99.90;;;;;;5014563;28;20222;-90
2021/06/25 07:13:02;;;;;;;17.03;10.03;;;15.50;99.90;;;;;;5016335;28;20388;-88
2021/06/25 07:15:28;;;;;;;14.47;8.63;;;15.50;99.90;;;;;;5018495;28;20210;-90
2021/06/25 07:17:54;;;;;;;15.13;8.93;;;15.50;99.90;;;;;;5014343;28;20310;-89
2021/06/25 07:20:20;;;;;;;20.80;9.33;;;15.60;99.90;;;;;;5016396;28;20269;-88
2021/06/25 07:22:45;;;;;;;12.67;9.67;;;15.70;99.90;;;;;;5015144;28;20219;-91
2021/06/25 07:25:12;;;;;;;11.73;8.17;;;15.80;99.90;;;;;;5029322;28;20219;-93
2021/06/25 07:27:40;;;;;;;17.00;8.43;;;15.90;99.90;;;;;;5012813;28;20216;-91
2021/06/25 07:30:10;;;;;;;16.83;9.00;;;15.90;99.90;;;;;;5017554;28;20235;-90
2021/06/25 07:32:35;;;;;;;16.43;10.20;;;15.90;99.90;;;;;;5015590;28;20195;-90
2021/06/25 07:35:02;;;;;;;14.83;7.83;;;16.00;99.90;;;;;;5014647;28;20587;-89
2021/06/25 07:37:28;;;;;;;16.03;9.77;;;16.00;99.90;;;;;;4997195;28;20218;-90
2021/06/25 07:39:54;;;;;;;14.47;9.10;;;16.00;99.90;;;;;;5027001;28;20224;-89
2021/06/25 07:42:21;;;;;;;13.67;8.40;;;16.00;99.90;;;;;;5012575;28;20690;-88
2021/06/25 07:44:50;;;;;;;14.60;8.47;;;16.10;99.90;;;;;;5011167;28;21031;-89
2021/06/25 07:47:16;;;;;;;12.03;6.93;;;16.20;99.90;;;;;;5029425;28;20202;-88
2021/06/25 07:49:42;;;;;;;10.97;6.97;;;16.40;99.90;;;;;;5030202;28;20294;-88
2021/06/25 07:52:10;;;;;;;15.23;8.50;;;16.40;99.90;;;;;;4988326;28;20229;-87
2021/06/25 07:54:37;;;;;;;11.77;7.60;;;16.30;99.90;;;;;;5012773;28;20221;-89
2021/06/25 07:57:04;;;;;;;13.23;8.37;;;16.30;99.90;;;;;;5029524;28;20226;-87
2021/06/25 07:59:30;;;;;;;13.43;7.23;;;16.60;99.90;;;;;;5025323;28;20191;-91
2021/06/25 08:01:56;;;;;;;14.93;7.83;;;16.60;99.90;;;;;;4997710;28;21076;-91
2021/06/25 08:04:21;;;;;;;18.23;8.80;;;16.50;99.90;;;;;;5013526;28;20638;-91
2021/06/25 08:06:47;;;;;;;13.90;7.77;;;16.40;99.90;;;;;;5011152;28;20250;-90
2021/06/25 08:09:13;;;;;;;17.80;8.93;;;16.50;99.90;;;;;;4996789;28;20681;-89
2021/06/25 08:11:39;;;;;;;14.20;7.33;;;16.70;99.90;;;;;;4997229;28;20196;-89
2021/06/25 08:14:07;;;;;;;14.63;8.10;;;16.80;99.90;;;;;;5027549;28;20290;-90
2021/06/25 08:16:33;;;;;;;14.47;8.13;;;16.80;99.90;;;;;;4994364;28;20218;-91
2021/06/25 08:19:00;;;;;;;14.73;8.23;;;16.90;99.90;;;;;;5025728;28;20277;-85
2021/06/25 08:21:30;;;;;;;17.03;7.97;;;17.10;99.90;;;;;;4996369;28;20218;-89
2021/06/25 08:23:56;;;;;;;15.13;9.20;;;17.20;99.90;;;;;;5015868;28;20975;-88
2021/06/25 08:26:22;;;;;;;19.73;10.23;;;17.40;99.90;;;;;;5019138;28;20195;-87
2021/06/25 08:28:48;;;;;;;13.50;7.57;;;17.50;99.90;;;;;;5000155;28;20720;-86
2021/06/25 08:31:15;;;;;;;16.77;7.80;;;17.50;99.90;;;;;;4975353;28;20227;-88
2021/06/25 08:33:41;;;;;;;13.90;7.63;;;17.60;99.90;;;;;;5013898;28;20210;-87
2021/06/25 08:36:07;;;;;;;15.20;7.63;;;17.80;99.90;;;;;;5014860;28;20277;-86
2021/06/25 08:38:33;;;;;;;16.27;8.27;;;17.90;99.90;;;;;;4999841;28;20198;-88
2021/06/25 08:41:00;;;;;;;15.03;9.13;;;18.10;99.90;;;;;;5015756;28;20230;-86
2021/06/25 08:43:27;;;;;;;13.40;8.87;;;18.20;99.90;;;;;;5013743;28;20243;-87
2021/06/25 08:45:54;;;;;;;18.70;9.50;;;18.10;99.90;;;;;;4983096;28;20323;-86
2021/06/25 08:48:23;;;;;;;15.60;7.83;;;18.10;99.90;;;;;;4990231;28;20230;-87
2021/06/25 08:50:52;;;;;;;14.50;8.27;;;18.20;99.90;;;;;;5017534;28;20227;-86
2021/06/25 08:53:18;;;;;;;13.90;8.07;;;18.20;99.90;;;;;;5017118;28;20194;-87
2021/06/25 08:55:43;;;;;;;18.53;8.43;;;18.30;99.90;;;;;;5016747;28;20214;-85
2021/06/25 08:58:20;;;;;;;15.00;7.80;;;18.60;99.90;;;;;;5015626;28;20225;-86
2021/06/25 09:00:47;;;;;;;17.80;8.00;;;18.50;99.90;;;;;;5012499;28;20245;-89
2021/06/25 09:03:20;;;;;;;23.83;9.60;;;18.70;99.90;;;;;;5031140;28;20568;-87
2021/06/25 09:05:46;;;;;;;14.07;8.67;;;19.20;99.90;;;;;;5017854;28;20191;-88
2021/06/25 09:08:30;;;;;;;19.33;9.37;;;19.50;99.90;;;;;;5015474;28;20186;-87
2021/06/25 09:11:00;;;;;;;13.33;8.23;;;19.50;99.90;;;;;;5032326;28;20235;-85
2021/06/25 09:13:32;;;;;;;12.63;7.80;;;19.70;99.90;;;;;;5015395;28;20230;-86
2021/06/25 09:15:58;;;;;;;11.17;7.03;;;20.00;99.90;;;;;;5013785;28;20219;-86
2021/06/25 09:18:25;;;;;;;14.20;8.27;;;20.60;99.90;;;;;;4981337;28;20223;-89
2021/06/25 09:20:52;;;;;;;18.30;8.07;;;20.50;99.90;;;;;;4996473;28;20591;-85
2021/06/25 09:23:33;;;;;;;15.97;8.90;;;20.90;99.90;;;;;;5031916;28;20234;-86
2021/06/25 09:26:00;;;;;;;17.07;8.53;;;21.80;99.90;;;;;;5030034;28;20675;-86
2021/06/25 09:28:40;;;;;;;13.60;8.37;;;21.60;99.90;;;;;;5011097;28;20216;-87
2021/06/25 09:31:22;;;;;;;13.20;8.30;;;21.30;99.90;;;;;;5010537;28;20689;-87
2021/06/25 09:33:49;;;;;;;14.60;9.17;;;21.00;99.90;;;;;;4997863;28;20206;-86
2021/06/25 09:36:24;;;;;;;14.70;9.23;;;21.20;99.90;;;;;;5031890;28;20261;-87
2021/06/25 09:39:10;;;;;;;15.23;8.57;;;20.90;99.90;;;;;;5016673;28;20210;-86
2021/06/25 09:41:41;;;;;;;12.17;8.87;;;20.40;99.90;;;;;;5012428;28;20214;-86
2021/06/25 09:44:10;;;;;;;14.53;8.73;;;20.00;99.90;;;;;;5015680;28;20632;-92
2021/06/25 09:46:40;;;;;;;17.73;9.83;;;20.00;99.90;;;;;;5015024;28;21413;-87
2021/06/25 09:49:22;;;;;;;17.40;8.10;;;20.60;99.90;;;;;;5013517;28;20222;-86
2021/06/25 09:51:56;;;;;;;16.93;9.70;;;20.40;99.90;;;;;;5014848;28;20225;-88
2021/06/25 09:54:23;;;;;;;14.77;8.80;;;20.80;99.90;;;;;;5029223;28;20238;-87
2021/06/25 09:56:59;;;;;;;17.27;8.93;;;21.00;99.90;;;;;;4979852;28;20219;-86
2021/06/25 09:59:34;;;;;;;15.90;8.43;;;21.20;99.90;;;;;;5011085;28;20186;-89
2021/06/25 10:02:19;;;;;;;18.63;10.03;;;21.40;99.90;;;;;;5011817;28;20235;-88
2021/06/25 10:04:46;;;;;;;18.70;10.10;;;21.00;99.90;;;;;;5032074;28;20229;-87
2021/06/25 10:07:20;;;;;;;19.73;9.83;;;20.20;99.90;;;;;;5013982;28;20230;-87
2021/06/25 10:09:48;;;;;;;14.77;9.63;;;20.10;99.90;;;;;;5028248;28;20723;-89
2021/06/25 10:12:16;;;;;;;15.27;9.67;;;19.80;99.90;;;;;;4999432;28;20230;-86
2021/06/25 10:14:43;;;;;;;13.60;9.53;;;20.00;99.90;;;;;;5030763;28;20210;-87
2021/06/25 10:17:11;;;;;;;19.00;10.90;;;20.10;99.90;;;;;;5013738;28;20191;-87
2021/06/25 10:19:45;;;;;;;18.20;11.47;;;20.60;99.90;;;;;;5012586;28;20207;-88
2021/06/25 10:22:13;;;;;;;13.87;9.53;;;20.80;99.90;;;;;;5014792;28;20264;-88
2021/06/25 10:24:42;;;;;;;17.70;10.37;;;20.40;99.90;;;;;;5010885;28;20406;-87
2021/06/25 10:27:08;;;;;;;19.53;10.57;;;20.20;99.90;;;;;;4995990;28;20219;-87
2021/06/25 10:29:35;;;;;;;16.03;11.03;;;20.10;99.90;;;;;;4998834;28;20234;-85
2021/06/25 10:32:01;;;;;;;21.50;11.43;;;20.60;99.90;;;;;;5012207;28;20226;-88
2021/06/25 10:34:32;;;;;;;20.07;10.60;;;20.70;99.90;;;;;;5016004;28;20245;-87
2021/06/25 10:37:01;;;;;;;15.93;10.87;;;20.70;99.90;;;;;;5026769;28;20248;-87
2021/06/25 10:39:26;;;;;;;20.03;11.13;;;21.00;99.90;;;;;;5011865;28;20256;-87
2021/06/25 10:41:57;;;;;;;17.87;11.13;;;20.80;99.90;;;;;;4996675;28;20823;-86
2021/06/25 10:44:35;;;;;;;20.57;10.77;;;20.50;99.90;;;;;;5011960;28;20233;-88
2021/06/25 10:47:17;;;;;;;18.63;11.70;;;20.50;99.90;;;;;;5013081;28;20223;-90
2021/06/25 10:49:58;;;;;;;18.57;10.57;;;20.60;99.90;;;;;;5028243;28;20227;-89
2021/06/25 10:52:28;;;;;;;20.00;11.20;;;20.80;99.90;;;;;;5029511;28;20253;-89
2021/06/25 10:55:16;;;;;;;19.17;12.50;;;20.60;99.90;;;;;;4997589;28;20211;-87
2021/06/25 10:57:51;;;;;;;22.97;12.40;;;20.60;99.90;;;;;;4996525;28;20238;-87
2021/06/25 11:00:30;;;;;;;18.73;11.70;;;20.90;99.90;;;;;;5028077;28;20234;-88
2021/06/25 11:02:56;;;;;;;21.87;12.17;;;20.90;99.90;;;;;;5010826;28;20231;-87
2021/06/25 11:05:25;;;;;;;21.73;10.57;;;20.90;99.90;;;;;;5014436;28;20943;-87
2021/06/25 11:07:52;;;;;;;20.93;11.97;;;21.40;99.90;;;;;;5012690;28;20276;-85
2021/06/25 11:10:52;;;;;;;18.93;11.57;;;22.40;99.90;;;;;;5013273;28;20223;-88
2021/06/25 11:13:22;;;;;;;19.43;10.87;;;22.70;99.90;;;;;;5001794;28;20333;-89
2021/06/25 11:15:53;;;;;;;18.80;11.47;;;23.10;99.90;;;;;;5029745;28;20219;-91
2021/06/25 11:18:28;;;;;;;24.00;11.80;;;23.00;99.90;;;;;;5011540;28;20296;-90
2021/06/25 11:20:59;;;;;;;20.13;12.50;;;22.80;99.90;;;;;;5013613;28;20222;-90
2021/06/25 11:23:35;;;;;;;22.30;12.40;;;21.90;99.90;;;;;;5011709;28;20182;-87
2021/06/25 11:26:03;;;;;;;20.47;12.60;;;21.70;99.90;;;;;;5028015;28;20302;-88
2021/06/25 11:28:38;;;;;;;27.47;14.20;;;21.20;99.90;;;;;;4996400;28;20233;-86
2021/06/25 11:31:22;;;;;;;21.37;13.63;;;21.40;99.90;;;;;;5012289;28;20238;-87
2021/06/25 11:33:50;;;;;;;27.37;15.63;;;21.20;99.90;;;;;;5027964;28;20219;-90
2021/06/25 11:36:22;;;;;;;20.30;13.33;;;21.50;99.90;;;;;;5015030;28;20214;-87
2021/06/25 11:39:00;;;;;;;23.27;14.20;;;21.70;99.90;;;;;;5032428;28;20231;-86
2021/06/25 11:41:40;;;;;;;27.10;14.70;;;21.70;99.90;;;;;;5012823;28;20261;-88
2021/06/25 11:44:12;;;;;;;22.17;13.90;;;21.60;99.90;;;;;;5011143;28;20610;-87
2021/06/25 11:47:11;;;;;;;22.80;14.27;;;21.30;99.90;;;;;;5013926;28;20221;-89
2021/06/25 11:50:03;;;;;;;25.30;14.13;;;21.10;99.90;;;;;;5015328;28;20230;-87
2021/06/25 11:52:31;;;;;;;29.17;14.73;;;20.80;99.90;;;;;;5011046;28;20215;-88
2021/06/25 11:55:04;;;;;;;28.67;16.00;;;20.80;99.90;;;;;;5011972;28;20222;-88
2021/06/25 11:57:32;;;;;;;26.87;15.60;;;21.20;99.90;;;;;;5008643;28;20268;-87
2021/06/25 12:00:00;;;;;;;32.17;18.00;;;21.30;99.90;;;;;;5012055;28;20223;-86
2021/06/25 12:02:26;;;;;;;27.47;15.37;;;21.60;99.90;;;;;;5011978;28;20486;-88
2021/06/25 12:04:52;;;;;;;27.40;16.23;;;21.40;99.90;;;;;;4995609;28;20245;-89
2021/06/25 12:07:19;;;;;;;25.67;14.27;;;21.50;99.90;;;;;;5012130;28;20215;-90
2021/06/25 12:09:50;;;;;;;24.97;15.40;;;21.70;99.90;;;;;;5014029;28;20222;-90
2021/06/25 12:12:31;;;;;;;25.83;15.70;;;21.70;99.90;;;;;;5027681;28;20248;-89
2021/06/25 12:15:06;;;;;;;29.17;16.57;;;21.80;99.90;;;;;;5027632;28;20215;-90
2021/06/25 12:17:49;;;;;;;26.60;16.43;;;22.10;99.90;;;;;;5029046;28;20201;-88
2021/06/25 12:20:26;;;;;;;31.70;17.70;;;22.40;99.90;;;;;;4995846;28;20249;-88
2021/06/25 12:23:03;;;;;;;31.27;18.40;;;22.80;99.90;;;;;;5011528;28;20206;-91
2021/06/25 12:25:45;;;;;;;30.50;18.20;;;22.70;99.90;;;;;;5023710;28;20223;-92
2021/06/25 12:28:16;;;;;;;29.77;16.13;;;22.80;99.90;;;;;;5008001;28;20284;-92
2021/06/25 12:30:45;;;;;;;31.93;16.80;;;22.50;99.90;;;;;;5012179;28;20234;-88
2021/06/25 12:33:12;;;;;;;28.47;16.97;;;21.80;99.90;;;;;;5010519;28;20231;-91
2021/06/25 12:35:49;;;;;;;29.50;18.23;;;21.80;99.90;;;;;;5011060;28;20189;-91
2021/06/25 12:38:22;;;;;;;29.80;17.07;;;21.70;99.90;;;;;;5014218;28;20284;-90
2021/06/25 12:40:56;;;;;;;29.93;16.53;;;21.90;99.90;;;;;;5009883;28;20268;-91
2021/06/25 12:43:31;;;;;;;32.97;17.73;;;21.50;99.90;;;;;;5028851;28;20356;-88
2021/06/25 12:46:12;;;;;;;31.87;16.67;;;21.50;99.90;;;;;;5025830;28;20324;-88
2021/06/25 12:48:46;;;;;;;30.03;17.13;;;21.80;99.90;;;;;;5011873;28;20223;-88
2021/06/25 12:51:21;;;;;;;32.83;16.97;;;22.10;99.90;;;;;;5013080;28;21021;-90
2021/06/25 12:53:51;;;;;;;29.30;15.70;;;22.40;99.90;;;;;;5012063;28;20249;-88